Time;durP1;ratioP1;P1;durP2;ratioP2;P2;SDS_P1;SDS_P2;PMS_P1;PMS_P2;Temp;Humidity;BMP_temperature;BMP_pressure;BME280_temperature;BME280_humidity;BME280_pressure;Samples;Min_cycle;Max_cycle;Signal;HPM_P1;HPM_P2
2022/10/18 00:01:13;;;;;;;1.20;1.10;;;25.60;71.40;;;;;;5092446;28;20843;-86
2022/10/18 00:03:40;;;;;;;1.30;1.20;;;25.50;71.40;;;;;;5097210;28;20806;-86
2022/10/18 00:06:08;;;;;;;1.00;0.90;;;25.60;71.40;;;;;;5097269;28;20493;-86
2022/10/18 00:08:36;;;;;;;1.00;0.90;;;25.50;71.30;;;;;;5097244;28;20450;-86
2022/10/18 00:11:05;;;;;;;1.20;1.10;;;25.60;71.40;;;;;;5097087;28;20439;-86
2022/10/18 00:13:31;;;;;;;1.50;1.20;;;25.60;72.30;;;;;;5097038;28;20446;-86
2022/10/18 00:16:01;;;;;;;1.03;0.93;;;25.60;71.40;;;;;;5097082;28;20444;-86
2022/10/18 00:18:28;;;;;;;1.20;1.10;;;25.60;71.40;;;;;;5096107;28;20464;-86
2022/10/18 00:21:00;;;;;;;1.40;1.30;;;25.50;71.30;;;;;;5092478;28;20496;-88
2022/10/18 00:23:29;;;;;;;1.30;1.10;;;25.60;71.40;;;;;;5082116;28;20976;-86
2022/10/18 00:26:05;;;;;;;1.30;1.10;;;25.60;71.40;;;;;;5076830;28;20463;-86
2022/10/18 00:28:33;;;;;;;1.30;1.20;;;25.60;71.40;;;;;;5077786;28;20962;-86
2022/10/18 00:31:10;;;;;;;1.33;1.23;;;25.50;71.30;;;;;;5076182;28;20945;-86
2022/10/18 00:33:37;;;;;;;1.43;1.33;;;25.60;71.40;;;;;;5076417;28;20929;-86
2022/10/18 00:36:04;;;;;;;1.10;1.00;;;25.60;71.40;;;;;;5076616;28;20469;-86
2022/10/18 00:38:31;;;;;;;1.20;1.10;;;25.50;71.30;;;;;;5076169;28;20450;-86
2022/10/18 00:40:57;;;;;;;1.20;1.10;;;25.60;71.40;;;;;;5076317;28;20845;-86
2022/10/18 00:43:26;;;;;;;2.13;1.33;;;25.50;71.30;;;;;;5076176;28;20440;-86
2022/10/18 00:45:52;;;;;;;1.20;1.10;;;25.50;71.30;;;;;;5076046;28;20953;-86
2022/10/18 00:48:20;;;;;;;1.07;0.97;;;25.50;71.20;;;;;;5076475;28;20465;-88
2022/10/18 00:50:49;;;;;;;1.00;0.90;;;25.50;71.20;;;;;;5076302;28;20459;-86
2022/10/18 00:53:18;;;;;;;1.10;1.00;;;25.50;71.10;;;;;;5076283;28;20443;-86
2022/10/18 00:55:45;;;;;;;1.20;1.10;;;25.50;71.20;;;;;;5075983;28;20444;-86
2022/10/18 00:58:14;;;;;;;1.83;1.20;;;25.50;71.30;;;;;;5079397;28;20442;-87
2022/10/18 01:00:43;;;;;;;1.00;0.90;;;25.50;71.30;;;;;;5085459;28;20504;-87
2022/10/18 01:03:09;;;;;;;1.30;1.20;;;25.60;71.30;;;;;;5076060;28;20442;-86
2022/10/18 01:05:42;;;;;;;1.30;1.20;;;25.50;71.10;;;;;;5075821;28;20938;-88
2022/10/18 01:08:26;;;;;;;1.07;0.97;;;25.50;71.10;;;;;;5075729;28;20431;-87
2022/10/18 01:11:03;;;;;;;1.20;1.10;;;25.50;71.10;;;;;;5087146;28;20956;-88
2022/10/18 01:13:45;;;;;;;1.13;1.03;;;25.50;71.20;;;;;;5095952;28;20481;-87
2022/10/18 01:16:20;;;;;;;1.00;0.90;;;25.50;71.20;;;;;;5095998;28;20796;-88
2022/10/18 01:18:52;;;;;;;1.30;1.20;;;25.50;71.20;;;;;;5095812;28;20451;-86
2022/10/18 01:21:32;;;;;;;1.30;1.20;;;25.50;71.30;;;;;;5094002;28;20484;-88
2022/10/18 01:24:47;;;;;;;1.40;1.30;;;25.50;71.20;;;;;;5095719;28;20956;-86
2022/10/18 01:27:34;;;;;;;1.00;0.90;;;25.50;71.20;;;;;;5025412;28;20470;-86
2022/10/18 01:30:32;;;;;;;1.07;0.97;;;25.50;71.20;;;;;;5018324;28;20433;-86
2022/10/18 01:33:04;;;;;;;1.00;0.90;;;25.50;71.20;;;;;;5071023;28;20469;-86
2022/10/18 01:35:34;;;;;;;1.10;1.00;;;25.50;71.30;;;;;;5075247;28;20467;-86
2022/10/18 01:38:05;;;;;;;1.10;1.00;;;25.50;71.30;;;;;;5075208;28;20446;-87
2022/10/18 01:40:34;;;;;;;1.20;1.10;;;25.50;71.20;;;;;;5075340;28;20828;-86
2022/10/18 01:43:02;;;;;;;1.03;0.93;;;25.50;71.30;;;;;;5089710;28;20454;-86
2022/10/18 01:45:32;;;;;;;0.90;0.80;;;25.50;71.20;;;;;;5077891;28;20442;-86
2022/10/18 01:48:00;;;;;;;1.20;1.10;;;25.50;71.10;;;;;;5094446;28;20446;-86
2022/10/18 01:50:31;;;;;;;1.10;1.00;;;25.50;71.10;;;;;;5082058;28;20558;-86
2022/10/18 01:52:59;;;;;;;1.10;1.00;;;25.50;71.10;;;;;;5090674;28;20452;-86
2022/10/18 01:55:31;;;;;;;1.20;1.10;;;25.50;71.10;;;;;;5075135;28;20440;-86
2022/10/18 01:58:06;;;;;;;1.03;0.93;;;25.50;71.10;;;;;;5074926;28;20496;-86
2022/10/18 02:00:39;;;;;;;1.30;1.20;;;25.50;71.00;;;;;;5075727;28;20561;-87
2022/10/18 02:03:13;;;;;;;1.00;0.90;;;25.50;71.10;;;;;;5074700;28;20964;-87
2022/10/18 02:05:46;;;;;;;1.00;0.90;;;25.50;71.10;;;;;;5088634;28;20958;-87
2022/10/18 02:08:20;;;;;;;1.00;0.90;;;25.50;71.10;;;;;;5095032;28;20445;-88
2022/10/18 02:10:50;;;;;;;1.20;0.90;;;25.50;71.00;;;;;;5094789;28;20525;-87
2022/10/18 02:13:21;;;;;;;1.00;0.90;;;25.50;71.00;;;;;;5094917;28;20447;-87
2022/10/18 02:15:54;;;;;;;0.90;0.80;;;25.50;70.90;;;;;;5095154;28;20816;-86
2022/10/18 02:18:25;;;;;;;1.27;1.07;;;25.50;71.00;;;;;;5080975;28;20449;-87
2022/10/18 02:20:52;;;;;;;1.00;0.90;;;25.50;71.00;;;;;;5095449;28;20832;-88
2022/10/18 02:23:23;;;;;;;1.20;1.10;;;25.50;71.10;;;;;;5093894;28;20438;-87
2022/10/18 02:25:51;;;;;;;0.80;0.80;;;25.50;71.00;;;;;;5094634;28;20526;-88
2022/10/18 02:28:18;;;;;;;1.10;1.00;;;25.50;71.10;;;;;;5087851;28;20454;-86
2022/10/18 02:30:51;;;;;;;0.80;0.80;;;25.50;71.10;;;;;;5074326;28;20444;-86
2022/10/18 02:33:23;;;;;;;1.07;0.97;;;25.50;71.00;;;;;;5086066;28;20817;-86
2022/10/18 02:35:56;;;;;;;1.20;1.10;;;25.50;71.00;;;;;;5078163;28;20446;-86
2022/10/18 02:38:26;;;;;;;1.07;0.97;;;25.50;70.90;;;;;;5074257;28;20442;-87
2022/10/18 02:40:52;;;;;;;0.80;0.80;;;25.50;71.00;;;;;;5074005;28;20482;-86
2022/10/18 02:43:19;;;;;;;1.30;1.20;;;25.50;71.00;;;;;;5074314;28;20444;-88
2022/10/18 02:45:46;;;;;;;1.00;0.90;;;25.50;71.00;;;;;;5074046;28;20442;-86
2022/10/18 02:48:14;;;;;;;0.97;0.87;;;25.50;70.90;;;;;;5074286;28;20443;-86
2022/10/18 02:50:41;;;;;;;1.00;0.90;;;25.50;70.90;;;;;;5073958;28;20978;-86
2022/10/18 02:53:08;;;;;;;1.00;0.90;;;25.50;70.90;;;;;;5074097;28;20432;-86
2022/10/18 02:55:35;;;;;;;1.00;0.90;;;25.50;71.00;;;;;;5074316;28;20522;-86
2022/10/18 02:58:02;;;;;;;1.00;0.90;;;25.50;70.90;;;;;;5073864;28;20534;-85
2022/10/18 03:00:28;;;;;;;1.10;1.00;;;25.50;71.00;;;;;;5073758;28;20500;-88
2022/10/18 03:02:55;;;;;;;1.13;1.03;;;25.50;71.00;;;;;;5077429;28;20904;-86
2022/10/18 03:05:23;;;;;;;0.93;0.80;;;25.50;70.90;;;;;;5086483;28;20441;-88
2022/10/18 03:07:50;;;;;;;0.80;0.80;;;25.50;71.00;;;;;;5084056;28;20445;-87
2022/10/18 03:10:17;;;;;;;1.10;1.00;;;25.50;71.00;;;;;;5080511;28;20449;-86
2022/10/18 03:12:44;;;;;;;1.00;0.90;;;25.50;71.00;;;;;;5073712;28;20491;-87
2022/10/18 03:15:11;;;;;;;0.80;0.80;;;25.50;71.00;;;;;;5074004;28;20804;-87
2022/10/18 03:17:37;;;;;;;1.00;0.90;;;25.50;70.90;;;;;;5089027;28;20470;-88
2022/10/18 03:20:05;;;;;;;0.80;0.80;;;25.50;70.90;;;;;;5093972;28;20504;-87
2022/10/18 03:22:33;;;;;;;0.97;0.87;;;25.50;70.90;;;;;;5076984;28;20483;-86
2022/10/18 03:25:00;;;;;;;1.00;0.90;;;25.50;71.80;;;;;;5073878;28;20762;-86
2022/10/18 03:27:27;;;;;;;1.10;1.00;;;25.50;70.80;;;;;;5073725;28;20472;-86
2022/10/18 03:29:54;;;;;;;1.00;0.90;;;25.50;71.70;;;;;;5093684;28;20805;-87
2022/10/18 03:32:21;;;;;;;1.00;0.90;;;25.50;70.80;;;;;;5093745;28;20469;-87
2022/10/18 03:34:47;;;;;;;1.07;0.80;;;25.50;71.70;;;;;;5093692;28;20442;-87
2022/10/18 03:37:14;;;;;;;1.40;1.30;;;25.50;70.90;;;;;;5079487;28;20446;-87
2022/10/18 03:39:42;;;;;;;0.87;0.87;;;25.50;71.70;;;;;;5074620;28;20609;-88
2022/10/18 03:42:09;;;;;;;0.90;0.77;;;25.50;71.10;;;;;;5074645;28;20534;-87
2022/10/18 03:44:36;;;;;;;1.17;1.07;;;25.50;70.90;;;;;;5091546;28;20873;-86
2022/10/18 03:47:03;;;;;;;0.97;0.90;;;25.40;71.70;;;;;;5087217;28;20537;-88
2022/10/18 03:49:30;;;;;;;0.87;0.87;;;25.40;70.80;;;;;;5073286;28;20449;-88
2022/10/18 03:51:56;;;;;;;1.00;0.90;;;25.50;70.90;;;;;;5085142;28;20449;-88
2022/10/18 03:54:23;;;;;;;1.10;1.00;;;25.40;70.80;;;;;;5093508;28;20515;-86
2022/10/18 03:56:51;;;;;;;1.00;0.90;;;25.40;70.80;;;;;;5093867;28;20443;-88
2022/10/18 03:59:18;;;;;;;1.10;1.00;;;25.50;70.90;;;;;;5093444;28;20528;-87
2022/10/18 04:01:45;;;;;;;1.00;0.90;;;25.40;70.80;;;;;;5080907;28;20669;-86
2022/10/18 04:04:12;;;;;;;1.13;1.03;;;25.40;70.70;;;;;;5073125;28;20452;-86
2022/10/18 04:06:39;;;;;;;1.00;0.90;;;25.40;70.80;;;;;;5073276;28;20446;-86
2022/10/18 04:09:05;;;;;;;1.10;1.00;;;25.50;70.90;;;;;;5073062;28;20446;-86
2022/10/18 04:11:32;;;;;;;1.00;0.90;;;25.50;70.80;;;;;;5073144;28;20537;-87
2022/10/18 04:14:00;;;;;;;1.07;0.97;;;25.40;70.80;;;;;;5075046;28;20435;-86
2022/10/18 04:16:27;;;;;;;1.13;1.03;;;25.50;71.00;;;;;;5093264;28;20447;-87
2022/10/18 04:18:54;;;;;;;1.00;0.90;;;25.40;70.70;;;;;;5092886;28;21033;-88
2022/10/18 04:21:21;;;;;;;0.80;0.70;;;25.40;70.70;;;;;;5092902;28;20493;-87
2022/10/18 04:23:48;;;;;;;1.00;0.90;;;25.40;70.70;;;;;;5091282;28;20534;-88
2022/10/18 04:26:15;;;;;;;1.00;0.90;;;25.50;70.80;;;;;;5073073;28;20450;-87
2022/10/18 04:28:43;;;;;;;0.90;0.80;;;25.40;70.70;;;;;;5083008;28;20446;-86
2022/10/18 04:31:11;;;;;;;0.83;0.80;;;25.40;70.70;;;;;;5093023;28;20564;-87
2022/10/18 04:33:38;;;;;;;1.07;0.97;;;25.40;70.70;;;;;;5093110;28;20442;-86
2022/10/18 04:36:05;;;;;;;1.00;0.90;;;25.40;70.80;;;;;;5093755;28;20478;-86
2022/10/18 04:38:32;;;;;;;3.47;0.90;;;25.40;70.80;;;;;;5095237;28;20801;-86
2022/10/18 04:40:59;;;;;;;0.90;0.87;;;25.40;70.70;;;;;;5094931;28;20484;-86
2022/10/18 04:43:26;;;;;;;1.00;0.90;;;25.40;70.80;;;;;;5097960;28;20480;-86
2022/10/18 04:45:53;;;;;;;0.93;0.80;;;25.40;70.80;;;;;;5089946;28;20448;-88
2022/10/18 04:48:21;;;;;;;1.10;1.00;;;25.40;70.80;;;;;;5090282;28;20447;-86
2022/10/18 04:50:49;;;;;;;1.10;1.00;;;25.40;70.70;;;;;;5084157;28;20471;-85
2022/10/18 04:53:17;;;;;;;0.87;0.80;;;25.40;70.80;;;;;;5082226;28;20441;-86
2022/10/18 04:55:45;;;;;;;0.80;0.80;;;25.40;70.80;;;;;;5088088;28;20438;-86
2022/10/18 04:58:12;;;;;;;1.00;0.90;;;25.40;70.80;;;;;;5081414;28;20436;-86
2022/10/18 05:00:40;;;;;;;1.30;1.20;;;25.40;70.70;;;;;;5089626;28;20442;-85
2022/10/18 05:03:08;;;;;;;1.00;0.90;;;25.40;70.70;;;;;;5095516;28;20779;-86
2022/10/18 05:05:36;;;;;;;1.10;1.00;;;25.40;70.70;;;;;;5094963;28;20885;-86
2022/10/18 05:08:03;;;;;;;1.10;1.00;;;25.40;70.70;;;;;;5091917;28;20473;-86
2022/10/18 05:10:31;;;;;;;1.00;0.90;;;25.40;70.70;;;;;;5086844;28;20438;-86
2022/10/18 05:13:00;;;;;;;0.80;0.70;;;25.40;70.70;;;;;;5083673;28;20533;-85
2022/10/18 05:15:27;;;;;;;1.10;1.00;;;25.40;70.70;;;;;;5078360;28;20449;-85
2022/10/18 05:17:55;;;;;;;0.80;0.80;;;25.40;70.70;;;;;;5083292;28;20989;-86
2022/10/18 05:20:22;;;;;;;1.10;1.00;;;25.40;70.70;;;;;;5082841;28;21032;-84
2022/10/18 05:22:52;;;;;;;0.90;0.80;;;25.40;70.60;;;;;;5093726;28;20485;-85
2022/10/18 05:25:19;;;;;;;0.90;0.80;;;25.40;70.60;;;;;;5082716;28;20445;-86
2022/10/18 05:27:49;;;;;;;0.90;0.80;;;25.40;70.70;;;;;;5088724;28;20542;-87
2022/10/18 05:30:16;;;;;;;0.97;0.87;;;25.40;70.70;;;;;;5092427;28;20448;-86
2022/10/18 05:32:47;;;;;;;1.10;1.00;;;25.40;70.70;;;;;;5078284;28;20859;-86
2022/10/18 05:35:14;;;;;;;1.10;1.00;;;25.40;70.80;;;;;;5075605;28;20442;-88
2022/10/18 05:37:41;;;;;;;1.10;1.00;;;25.40;70.90;;;;;;5075783;28;20431;-88
2022/10/18 05:40:10;;;;;;;0.90;0.90;;;25.40;70.90;;;;;;5075771;28;20522;-87
2022/10/18 05:42:37;;;;;;;0.90;0.80;;;25.40;70.80;;;;;;5075242;28;21019;-88
2022/10/18 05:45:04;;;;;;;1.00;0.90;;;25.40;70.90;;;;;;5075703;28;20445;-86
2022/10/18 05:47:31;;;;;;;0.83;0.80;;;25.40;70.90;;;;;;5075388;28;20526;-88
2022/10/18 05:49:58;;;;;;;0.97;0.87;;;25.40;70.90;;;;;;5077375;28;20467;-86
2022/10/18 05:52:25;;;;;;;0.97;0.87;;;25.40;71.00;;;;;;5075016;28;20927;-87
2022/10/18 05:54:52;;;;;;;1.33;1.17;;;25.40;71.00;;;;;;5075413;28;20447;-89
2022/10/18 05:57:20;;;;;;;0.80;0.80;;;25.40;70.90;;;;;;5076799;28;20448;-87
2022/10/18 05:59:47;;;;;;;0.80;0.80;;;25.40;70.90;;;;;;5075539;28;20443;-87
2022/10/18 06:02:13;;;;;;;1.00;0.90;;;25.40;70.90;;;;;;5075818;28;20530;-87
2022/10/18 06:04:40;;;;;;;1.27;1.17;;;25.40;70.90;;;;;;5076473;28;20438;-88
2022/10/18 06:07:09;;;;;;;1.10;1.00;;;25.40;70.80;;;;;;5075273;28;20450;-88
2022/10/18 06:09:36;;;;;;;1.40;0.83;;;25.40;71.00;;;;;;5074734;28;20945;-86
2022/10/18 06:12:03;;;;;;;1.87;0.90;;;25.40;71.00;;;;;;5074571;28;20440;-87
2022/10/18 06:14:31;;;;;;;0.93;0.83;;;25.40;71.10;;;;;;5074819;28;20439;-87
2022/10/18 06:16:58;;;;;;;1.20;0.90;;;25.40;71.10;;;;;;5074842;28;20434;-88
2022/10/18 06:19:25;;;;;;;1.27;1.17;;;25.40;71.20;;;;;;5074766;28;20855;-89
2022/10/18 06:21:52;;;;;;;1.00;0.90;;;25.40;71.20;;;;;;5074277;28;20482;-88
2022/10/18 06:24:20;;;;;;;1.20;1.10;;;25.40;71.20;;;;;;5074587;28;20443;-87
2022/10/18 06:26:48;;;;;;;0.80;0.80;;;25.40;71.40;;;;;;5089266;28;20446;-86
2022/10/18 06:29:15;;;;;;;0.80;0.70;;;25.40;71.40;;;;;;5086718;28;20527;-87
2022/10/18 06:31:43;;;;;;;1.10;1.00;;;25.40;71.40;;;;;;5074341;28;20493;-88
2022/10/18 06:34:10;;;;;;;1.10;1.00;;;25.40;71.40;;;;;;5074051;28;20469;-88
2022/10/18 06:36:37;;;;;;;1.00;0.90;;;25.40;71.40;;;;;;5074110;28;20452;-86
2022/10/18 06:39:04;;;;;;;2.33;0.90;;;25.40;71.40;;;;;;5073679;28;20817;-88
2022/10/18 06:41:30;;;;;;;1.00;0.90;;;25.40;71.40;;;;;;5074104;28;21024;-88
2022/10/18 06:44:02;;;;;;;1.10;1.00;;;25.40;71.60;;;;;;5085356;28;20475;-86
2022/10/18 06:46:28;;;;;;;5.00;1.17;;;25.30;71.60;;;;;;5094318;28;20446;-86
2022/10/18 06:48:57;;;;;;;1.20;1.07;;;25.30;71.70;;;;;;5080461;28;20529;-87
2022/10/18 06:51:23;;;;;;;1.80;1.70;;;25.30;71.70;;;;;;5073835;28;20509;-86
2022/10/18 06:53:50;;;;;;;2.27;1.50;;;25.30;71.90;;;;;;5074193;28;20439;-89
2022/10/18 06:56:17;;;;;;;1.30;1.20;;;25.30;72.20;;;;;;5073734;28;20452;-89
2022/10/18 06:58:44;;;;;;;1.30;1.20;;;25.30;72.10;;;;;;5074135;28;20537;-89
2022/10/18 07:01:12;;;;;;;1.60;1.13;;;25.30;71.90;;;;;;5087172;28;20439;-89
2022/10/18 07:03:39;;;;;;;1.10;1.00;;;25.30;71.70;;;;;;5076396;28;20485;-89
2022/10/18 07:06:09;;;;;;;0.97;0.87;;;25.30;71.90;;;;;;5074136;28;20542;-90
2022/10/18 07:09:20;;;;;;;2.13;1.23;;;25.30;71.90;;;;;;5071999;28;20455;-89
2022/10/18 07:11:47;;;;;;;2.27;1.13;;;25.40;71.90;;;;;;5076557;28;20438;-89
2022/10/18 07:14:14;;;;;;;1.20;0.93;;;25.30;71.90;;;;;;5077676;28;20434;-90
2022/10/18 07:16:40;;;;;;;1.50;1.30;;;25.30;71.90;;;;;;5074779;28;21043;-89
2022/10/18 07:19:07;;;;;;;1.30;1.20;;;25.30;71.70;;;;;;5090968;28;20766;-90
2022/10/18 07:21:36;;;;;;;1.80;1.20;;;25.30;71.70;;;;;;5081195;28;20455;-90
2022/10/18 07:24:03;;;;;;;2.13;1.17;;;25.40;71.80;;;;;;5073605;28;20963;-90
2022/10/18 07:26:31;;;;;;;1.10;1.00;;;25.30;71.70;;;;;;5073916;28;20468;-89
2022/10/18 07:29:00;;;;;;;0.80;0.80;;;25.30;71.60;;;;;;5080501;28;20496;-88
2022/10/18 07:31:28;;;;;;;1.83;1.00;;;25.50;71.80;;;;;;5081364;28;20793;-88
2022/10/18 07:33:57;;;;;;;1.10;0.90;;;25.30;71.60;;;;;;5088792;28;20449;-89
2022/10/18 07:36:24;;;;;;;1.10;0.90;;;25.40;71.70;;;;;;5091012;28;20461;-88
2022/10/18 07:38:53;;;;;;;1.30;1.10;;;25.30;71.60;;;;;;5078433;28;20434;-89
2022/10/18 07:41:23;;;;;;;1.00;0.90;;;25.40;71.60;;;;;;5076376;28;20445;-90
2022/10/18 07:43:52;;;;;;;1.20;1.10;;;25.40;71.50;;;;;;5073297;28;20820;-88
2022/10/18 07:46:20;;;;;;;6.20;1.10;;;25.40;71.60;;;;;;5083399;28;20933;-89
2022/10/18 07:48:48;;;;;;;1.20;1.10;;;25.40;71.50;;;;;;5087790;28;20446;-89
2022/10/18 07:51:15;;;;;;;1.10;1.00;;;25.30;71.40;;;;;;5087344;28;20511;-89
2022/10/18 07:53:42;;;;;;;1.70;1.10;;;25.30;71.50;;;;;;5084259;28;20437;-89
2022/10/18 07:56:15;;;;;;;1.10;1.00;;;25.40;71.60;;;;;;5083745;28;20437;-89
2022/10/18 07:58:42;;;;;;;1.30;1.20;;;25.40;71.60;;;;;;5073706;28;20441;-89
2022/10/18 08:01:09;;;;;;;3.03;1.37;;;25.40;71.60;;;;;;5073298;28;20827;-89
2022/10/18 08:03:37;;;;;;;1.30;1.20;;;25.40;71.70;;;;;;5073061;28;20478;-90
2022/10/18 08:06:07;;;;;;;1.30;1.20;;;25.40;71.70;;;;;;5073264;28;20442;-89
2022/10/18 08:08:35;;;;;;;1.50;1.40;;;25.40;71.70;;;;;;5073408;28;20442;-88
2022/10/18 08:11:03;;;;;;;1.10;1.00;;;25.30;71.60;;;;;;5073165;28;20791;-88
2022/10/18 08:13:32;;;;;;;1.20;1.10;;;25.40;71.40;;;;;;5073430;28;20435;-89
2022/10/18 08:16:03;;;;;;;1.37;1.27;;;25.40;71.50;;;;;;5073310;28;20434;-89
2022/10/18 08:18:30;;;;;;;1.50;1.40;;;25.40;71.40;;;;;;5073132;28;20439;-89
2022/10/18 08:21:00;;;;;;;1.33;1.23;;;25.30;71.50;;;;;;5074688;28;20456;-88
2022/10/18 08:23:27;;;;;;;1.00;0.90;;;25.40;71.40;;;;;;5076847;28;20496;-90
2022/10/18 08:25:54;;;;;;;1.33;1.23;;;25.30;71.40;;;;;;5076721;28;20447;-89
2022/10/18 08:28:21;;;;;;;1.30;1.20;;;25.40;71.50;;;;;;5076653;28;20798;-90
2022/10/18 08:30:49;;;;;;;1.30;1.20;;;25.40;71.50;;;;;;5076662;28;20443;-89
2022/10/18 08:33:16;;;;;;;1.43;1.33;;;25.40;71.50;;;;;;5076823;28;20442;-90
2022/10/18 08:35:43;;;;;;;1.60;1.50;;;25.30;71.50;;;;;;5076840;28;20447;-89
2022/10/18 08:38:11;;;;;;;1.30;1.20;;;25.40;71.60;;;;;;5076802;28;20858;-89
2022/10/18 08:40:43;;;;;;;1.40;1.30;;;25.30;71.40;;;;;;5076811;28;20446;-89
2022/10/18 08:43:18;;;;;;;1.27;1.17;;;25.40;71.50;;;;;;5076487;28;20467;-89
2022/10/18 08:45:45;;;;;;;1.30;1.20;;;25.40;71.40;;;;;;5076675;28;20442;-90
2022/10/18 08:48:23;;;;;;;1.20;1.10;;;25.30;71.40;;;;;;5076439;28;20446;-90
2022/10/18 08:50:52;;;;;;;1.27;1.17;;;25.40;71.40;;;;;;5078549;28;20461;-88
2022/10/18 08:53:24;;;;;;;1.90;1.80;;;25.30;71.30;;;;;;5096591;28;20456;-89
2022/10/18 08:55:55;;;;;;;1.47;1.37;;;25.40;71.50;;;;;;5090335;28;20435;-90
2022/10/18 08:58:25;;;;;;;1.50;1.40;;;25.40;71.50;;;;;;5077576;28;20440;-89
2022/10/18 09:01:02;;;;;;;1.70;1.60;;;25.30;71.40;;;;;;5077765;28;20957;-89
2022/10/18 09:03:52;;;;;;;2.77;2.57;;;25.40;71.40;;;;;;5076307;28;20509;-88
2022/10/18 09:06:25;;;;;;;3.53;3.33;;;25.30;71.70;;;;;;5081218;28;20450;-92
2022/10/18 09:09:07;;;;;;;3.43;2.87;;;25.30;72.10;;;;;;5076345;28;20449;-90
2022/10/18 09:11:47;;;;;;;7.13;2.90;;;25.30;72.00;;;;;;5090985;28;20434;-91
2022/10/18 09:14:40;;;;;;;1.87;1.73;;;25.40;71.90;;;;;;5101653;28;20435;-87
2022/10/18 09:17:14;;;;;;;2.17;2.07;;;25.30;71.60;;;;;;5067477;28;20443;-87
2022/10/18 09:20:00;;;;;;;1.77;1.67;;;25.30;71.60;;;;;;5101878;28;20450;-90
2022/10/18 09:22:39;;;;;;;3.00;1.93;;;25.30;71.50;;;;;;5080627;28;20462;-86
2022/10/18 09:25:16;;;;;;;5.80;1.97;;;25.30;71.80;;;;;;5075738;28;20439;-91
2022/10/18 09:27:51;;;;;;;1.90;1.80;;;25.30;71.90;;;;;;5076224;28;20898;-92
2022/10/18 09:30:25;;;;;;;2.63;2.47;;;25.30;71.90;;;;;;5076025;28;20470;-86
2022/10/18 09:33:01;;;;;;;2.17;1.97;;;25.30;71.70;;;;;;5074680;28;20492;-86
2022/10/18 09:35:37;;;;;;;1.90;1.80;;;25.30;71.60;;;;;;5075430;28;20460;-88
2022/10/18 09:38:09;;;;;;;2.10;2.00;;;25.30;71.60;;;;;;5075585;28;20439;-87
2022/10/18 09:40:45;;;;;;;2.37;2.27;;;25.30;71.60;;;;;;5075343;28;20444;-87
2022/10/18 09:43:18;;;;;;;1.63;1.50;;;25.30;71.70;;;;;;5074989;28;20485;-87
2022/10/18 09:45:46;;;;;;;1.50;1.40;;;25.40;71.60;;;;;;5074895;28;21152;-87
2022/10/18 09:48:18;;;;;;;2.20;2.10;;;25.40;71.30;;;;;;5075213;28;20938;-89
2022/10/18 09:50:52;;;;;;;1.87;1.77;;;25.50;71.00;;;;;;5075323;28;20888;-91
2022/10/18 09:53:25;;;;;;;2.40;1.80;;;25.50;71.00;;;;;;5075192;28;20436;-90
2022/10/18 09:55:59;;;;;;;1.67;1.57;;;25.50;71.00;;;;;;5075211;28;20452;-90
2022/10/18 09:58:33;;;;;;;1.87;1.77;;;25.50;71.00;;;;;;5075396;28;20765;-90
2022/10/18 10:01:01;;;;;;;2.00;1.90;;;25.50;71.10;;;;;;5075460;28;20438;-93
2022/10/18 10:03:27;;;;;;;2.40;2.30;;;25.50;71.10;;;;;;5074887;28;20481;-88
2022/10/18 10:06:15;;;;;;;3.10;2.30;;;25.50;71.20;;;;;;5074776;28;20430;-88
2022/10/18 10:08:43;;;;;;;2.43;2.23;;;25.50;71.30;;;;;;5075024;28;20436;-88
2022/10/18 10:11:28;;;;;;;3.20;2.90;;;25.40;71.70;;;;;;5074371;28;20443;-88
2022/10/18 10:13:58;;;;;;;2.90;2.70;;;25.40;71.80;;;;;;5074500;28;20809;-89
2022/10/18 10:16:26;;;;;;;2.97;2.77;;;25.40;71.90;;;;;;5074740;28;20843;-89
2022/10/18 10:18:54;;;;;;;2.73;2.50;;;25.40;71.90;;;;;;5072975;28;20446;-88
2022/10/18 10:21:22;;;;;;;2.90;2.70;;;25.40;72.00;;;;;;5074158;28;20443;-88
2022/10/18 10:23:53;;;;;;;2.50;2.40;;;25.40;72.10;;;;;;5074065;28;20490;-88
2022/10/18 10:26:23;;;;;;;2.80;2.70;;;25.40;72.10;;;;;;5074883;28;20816;-87
2022/10/18 10:28:50;;;;;;;3.57;2.63;;;25.40;72.10;;;;;;5073376;28;20446;-89
2022/10/18 10:31:26;;;;;;;2.67;2.47;;;25.40;72.20;;;;;;5074068;28;20474;-88
2022/10/18 10:33:59;;;;;;;3.20;2.90;;;25.40;72.20;;;;;;5074805;28;20785;-88
2022/10/18 10:36:28;;;;;;;2.80;2.60;;;25.40;72.20;;;;;;5074836;28;20444;-88
2022/10/18 10:39:06;;;;;;;2.70;2.50;;;25.40;72.20;;;;;;5074796;28;20435;-92
2022/10/18 10:41:33;;;;;;;2.03;1.93;;;25.50;72.20;;;;;;5074686;28;20428;-91
2022/10/18 10:44:07;;;;;;;1.83;1.73;;;25.50;71.90;;;;;;5074469;28;20494;-90
2022/10/18 10:46:35;;;;;;;2.53;1.93;;;25.50;71.70;;;;;;5074375;28;20442;-87
2022/10/18 10:49:02;;;;;;;2.93;2.63;;;25.50;71.60;;;;;;5074315;28;20504;-87
2022/10/18 10:51:32;;;;;;;2.27;2.07;;;25.60;71.60;;;;;;5074096;28;20801;-87
2022/10/18 10:54:01;;;;;;;2.90;2.20;;;25.80;71.80;;;;;;5074042;28;20502;-87
2022/10/18 10:56:30;;;;;;;2.50;2.30;;;25.70;71.60;;;;;;5074368;28;20439;-87
2022/10/18 10:59:07;;;;;;;2.07;1.97;;;25.70;71.40;;;;;;5074366;28;20440;-87
2022/10/18 11:01:35;;;;;;;1.80;1.70;;;25.80;71.40;;;;;;5074024;28;20443;-87
2022/10/18 11:04:21;;;;;;;4.40;2.53;;;25.70;71.30;;;;;;5073843;28;21007;-87
2022/10/18 11:06:57;;;;;;;4.70;4.30;;;25.70;71.30;;;;;;5074203;28;20446;-87
2022/10/18 11:09:43;;;;;;;3.30;2.33;;;25.70;71.60;;;;;;5074293;28;20443;-87
2022/10/18 11:12:32;;;;;;;3.30;2.90;;;25.70;71.50;;;;;;5073976;28;20439;-87
2022/10/18 11:15:20;;;;;;;3.20;3.00;;;25.70;71.40;;;;;;5073919;28;20458;-86
2022/10/18 11:17:59;;;;;;;3.43;3.23;;;25.60;71.60;;;;;;5073455;28;20442;-86
2022/10/18 11:20:31;;;;;;;3.00;2.80;;;25.60;71.80;;;;;;5073557;28;20459;-86
2022/10/18 11:23:02;;;;;;;2.77;2.57;;;25.70;71.80;;;;;;5073471;28;20448;-86
2022/10/18 11:25:49;;;;;;;4.13;2.90;;;25.60;71.60;;;;;;5073984;28;20433;-86
2022/10/18 11:28:27;;;;;;;5.73;2.87;;;25.70;71.70;;;;;;5074411;28;20442;-86
2022/10/18 11:31:11;;;;;;;3.20;2.93;;;25.60;71.80;;;;;;5074139;28;20439;-86
2022/10/18 11:33:51;;;;;;;3.80;3.13;;;25.70;71.90;;;;;;5075062;28;20446;-87
2022/10/18 11:36:24;;;;;;;3.43;3.13;;;25.70;72.00;;;;;;5074858;28;20431;-86
2022/10/18 11:38:57;;;;;;;3.03;2.83;;;25.70;72.20;;;;;;5074347;28;20447;-85
2022/10/18 11:41:33;;;;;;;3.13;2.93;;;25.80;72.30;;;;;;5073620;28;20453;-86
2022/10/18 11:44:01;;;;;;;3.33;3.13;;;25.90;72.20;;;;;;5073383;28;20477;-86
2022/10/18 11:46:45;;;;;;;3.43;3.23;;;25.90;72.10;;;;;;5073655;28;20818;-88
2022/10/18 11:49:36;;;;;;;4.53;3.53;;;25.90;72.10;;;;;;5073514;28;20464;-92
2022/10/18 11:52:10;;;;;;;3.60;3.37;;;25.90;72.00;;;;;;5073553;28;20443;-92
2022/10/18 11:54:53;;;;;;;3.47;3.17;;;25.90;72.10;;;;;;5091893;28;20434;-92
2022/10/18 11:57:36;;;;;;;3.50;3.20;;;25.80;72.10;;;;;;5097966;28;20434;-92
2022/10/18 12:00:16;;;;;;;7.90;3.40;;;25.90;72.20;;;;;;5097734;28;20488;-87
2022/10/18 12:03:07;;;;;;;3.50;3.07;;;25.90;72.20;;;;;;5097909;28;20434;-92
2022/10/18 12:05:37;;;;;;;4.63;3.30;;;25.90;72.20;;;;;;5097864;28;20450;-87
2022/10/18 12:08:09;;;;;;;3.37;3.17;;;25.90;72.40;;;;;;5098584;28;20506;-94
2022/10/18 12:10:41;;;;;;;3.53;3.23;;;25.90;72.40;;;;;;5097981;28;20441;-90
2022/10/18 12:13:11;;;;;;;3.10;2.90;;;25.90;72.40;;;;;;5097944;28;20449;-87
2022/10/18 12:15:40;;;;;;;3.20;2.97;;;25.90;72.30;;;;;;5097696;28;20447;-92
2022/10/18 12:18:11;;;;;;;3.00;2.70;;;25.90;72.30;;;;;;5097978;28;20442;-87
2022/10/18 12:20:42;;;;;;;4.53;3.10;;;25.90;72.30;;;;;;5098581;28;20644;-90
2022/10/18 12:23:13;;;;;;;3.60;3.30;;;25.90;72.30;;;;;;5097848;28;20452;-87
2022/10/18 12:25:49;;;;;;;3.13;2.93;;;25.90;72.30;;;;;;5098002;28;20438;-93
2022/10/18 12:28:25;;;;;;;4.10;3.10;;;25.90;72.30;;;;;;5097945;28;20457;-94
2022/10/18 12:31:00;;;;;;;3.30;3.10;;;25.90;72.30;;;;;;5096884;28;20449;-93
2022/10/18 12:33:30;;;;;;;3.00;2.80;;;26.00;72.30;;;;;;5097353;28;20441;-94
2022/10/18 12:36:11;;;;;;;3.40;3.10;;;26.00;72.30;;;;;;5097280;28;20799;-91
2022/10/18 12:38:42;;;;;;;3.10;2.90;;;26.00;72.30;;;;;;5096480;28;20438;-88
2022/10/18 12:41:19;;;;;;;5.30;2.93;;;26.00;72.30;;;;;;5097401;28;20450;-87
2022/10/18 12:43:52;;;;;;;2.83;2.63;;;26.00;72.20;;;;;;5080982;28;20985;-94
2022/10/18 12:46:19;;;;;;;5.83;3.30;;;26.00;72.30;;;;;;5077186;28;20456;-88
2022/10/18 12:49:00;;;;;;;3.00;2.80;;;26.00;72.30;;;;;;5076910;28;20440;-94
2022/10/18 12:51:26;;;;;;;2.90;2.70;;;26.00;72.30;;;;;;5076531;28;20456;-91
2022/10/18 12:54:10;;;;;;;2.90;2.80;;;26.10;72.40;;;;;;5076952;28;20447;-87
2022/10/18 12:56:43;;;;;;;2.77;2.40;;;26.10;72.20;;;;;;5076505;28;20442;-89
2022/10/18 12:59:49;;;;;;;3.50;3.27;;;26.20;73.30;;;;;;5077233;28;20447;-87
2022/10/18 13:02:34;;;;;;;2.83;2.73;;;26.10;72.20;;;;;;5076479;28;20453;-87
2022/10/18 13:05:21;;;;;;;5.03;2.90;;;26.20;72.40;;;;;;5076461;28;20487;-87
2022/10/18 13:07:48;;;;;;;3.07;2.83;;;26.10;72.40;;;;;;5076207;28;20442;-87